Treaty Line Museum, Indiana
Current Conditions -  °F | °C
As of 10:55 AM on Friday 28 Nov 2014 (Local Time) from KI67 Reporting Station
Overcast Overcast  
Wind Chill: 24°   Ceiling: 8000
Heat Index: 32°   Visibility: 10mi
Dew Point: 19°   Wind: 9mph
Humidity: 60%   Direction: 200°SSW
Pressure: 30.37"   Gusts: NA
Location:  39.6086°N, 84.9137°W
Report Text: KI67 281555Z AUTO 20008KT 10SM SCT055 BKN080 OVC090 00/M07 A3037 RMK AO1
Loading
Personal Weather Stations






























Interactive Weather Map New forecast layout! Learn more

10-Day Weather Forecast

Advertisements
Track Severe Weather on mobile